createdAt,value
2022-08-05T00:00:19.610Z,100873.28
2022-08-05T00:02:51.452Z,100977.22
2022-08-05T00:05:27.062Z,101016.97
2022-08-05T00:08:32.571Z,101052.88
2022-08-05T00:11:00.756Z,101110.81
2022-08-05T00:13:38.405Z,101114.28
2022-08-05T00:16:12.574Z,101139.00
2022-08-05T00:18:45.218Z,101113.84
2022-08-05T00:21:14.450Z,101091.53
2022-08-05T00:23:46.967Z,101107.53
2022-08-05T00:26:30.821Z,101150.47
2022-08-05T00:28:59.343Z,101120.53
2022-08-05T00:31:41.397Z,101001.66
2022-08-05T00:34:53.755Z,101033.91
2022-08-05T00:37:10.663Z,101132.31
2022-08-05T00:39:58.778Z,101185.00
2022-08-05T00:42:34.380Z,101172.16
2022-08-05T00:45:02.455Z,101115.94
2022-08-05T00:47:53.323Z,101087.66
2022-08-05T00:50:17.242Z,101125.16
2022-08-05T00:52:45.379Z,101075.34
2022-08-05T00:55:14.128Z,101036.00
2022-08-05T00:57:55.600Z,101103.84
2022-08-05T01:00:32.321Z,101149.09
2022-08-05T01:03:01.323Z,101159.47
2022-08-05T01:05:35.236Z,101086.06
2022-08-05T01:08:30.812Z,100995.84
2022-08-05T01:11:22.213Z,101074.59
2022-08-05T01:14:16.576Z,101176.72
2022-08-05T01:16:52.268Z,101117.38
2022-08-05T01:19:46.331Z,101134.22
2022-08-05T01:22:29.083Z,101166.59
2022-08-05T01:25:20.706Z,101138.25
2022-08-05T01:28:20.972Z,101092.72
2022-08-05T01:30:57.287Z,101056.03
2022-08-05T01:33:35.469Z,101051.72
2022-08-05T01:36:13.041Z,101033.53
2022-08-05T01:38:44.224Z,100987.53
2022-08-05T01:41:14.590Z,101002.91
2022-08-05T01:43:42.080Z,101039.84
2022-08-05T01:46:16.650Z,101046.66
2022-08-05T01:48:58.682Z,101031.28
2022-08-05T01:51:26.912Z,101068.16
2022-08-05T01:53:59.186Z,101074.53
2022-08-05T01:58:12.154Z,101070.34
2022-08-05T01:59:20.864Z,101041.44
2022-08-05T02:01:49.989Z,101031.50
2022-08-05T02:04:18.604Z,101038.88
2022-08-05T02:06:45.976Z,101062.91
2022-08-05T02:09:16.352Z,101056.44
2022-08-05T02:12:05.935Z,101073.44
2022-08-05T02:15:04.128Z,101070.72
2022-08-05T02:18:30.569Z,101066.88
2022-08-05T02:20:28.250Z,101069.13
2022-08-05T02:23:01.665Z,101099.47
2022-08-05T02:25:32.980Z,101090.81
2022-08-05T02:28:02.997Z,101094.88
2022-08-05T02:30:54.404Z,101096.03
2022-08-05T02:33:24.646Z,101115.22
2022-08-05T02:36:05.486Z,101108.03
2022-08-05T02:38:35.495Z,101103.25
2022-08-05T02:41:06.399Z,101121.06
2022-08-05T02:44:02.964Z,101070.84
2022-08-05T02:46:31.138Z,101011.50
2022-08-05T02:49:01.380Z,101032.69
2022-08-05T02:52:02.932Z,101031.94
2022-08-05T02:54:34.822Z,101020.16
2022-08-05T02:57:10.084Z,101024.31
2022-08-05T02:59:57.735Z,101040.31
2022-08-05T03:02:29.927Z,101061.50
2022-08-05T03:04:58.288Z,101067.22
2022-08-05T03:08:00.331Z,101085.50
2022-08-05T03:10:24.604Z,101098.25
2022-08-05T03:12:54.173Z,101097.13
2022-08-05T03:15:23.482Z,101094.53
2022-08-05T03:17:55.771Z,101065.88
2022-08-05T03:20:24.492Z,101059.28
2022-08-05T03:22:57.360Z,101053.91
2022-08-05T03:25:33.507Z,101074.16
2022-08-05T03:28:13.928Z,101069.03
2022-08-05T03:30:42.770Z,101082.34
2022-08-05T03:33:10.309Z,101071.28
2022-08-05T03:35:40.687Z,101075.34
2022-08-05T03:38:11.829Z,101085.06
2022-08-05T03:40:48.447Z,101094.06
2022-08-05T03:44:09.902Z,101096.78
2022-08-05T03:46:05.146Z,101093.72
2022-08-05T03:48:36.779Z,101091.00
2022-08-05T03:52:37.483Z,101089.50
2022-08-05T03:55:52.465Z,101099.84
2022-08-05T03:56:59.865Z,101097.59
2022-08-05T03:59:47.170Z,101090.09
2022-08-05T04:02:37.490Z,101074.81
2022-08-05T04:05:09.962Z,101077.22
2022-08-05T04:07:57.338Z,101081.13
2022-08-05T04:10:30.787Z,101077.88
2022-08-05T04:13:01.235Z,101084.13
2022-08-05T04:15:32.988Z,101083.19
2022-08-05T04:18:09.357Z,101077.88
2022-08-05T04:20:37.408Z,101084.38
2022-08-05T04:23:04.677Z,101090.91
2022-08-05T04:25:56.577Z,101090.78
2022-08-05T04:28:20.548Z,101080.97
2022-08-05T04:30:58.652Z,101084.00
2022-08-05T04:33:54.395Z,101077.94
2022-08-05T04:36:44.901Z,101070.69
2022-08-05T04:39:07.172Z,101079.88
2022-08-05T04:41:36.714Z,101081.16
2022-08-05T04:44:09.101Z,101083.28
2022-08-05T04:46:38.464Z,101090.97
2022-08-05T04:49:12.356Z,101085.03
2022-08-05T04:51:45.187Z,101092.94
2022-08-05T04:54:14.661Z,101110.25
2022-08-05T04:56:42.396Z,101106.75
2022-08-05T04:59:14.011Z,101099.28
2022-08-05T05:02:35.198Z,101107.75
2022-08-05T05:04:38.279Z,101108.72
2022-08-05T05:07:09.547Z,101107.09
2022-08-05T05:09:37.486Z,101118.91
2022-08-05T05:12:06.267Z,101116.34
2022-08-05T05:14:36.272Z,101122.97
2022-08-05T05:17:07.600Z,101127.78
2022-08-05T05:19:44.346Z,101126.81
2022-08-05T05:22:24.032Z,101119.44
2022-08-05T05:24:58.946Z,101136.66
2022-08-05T05:27:45.015Z,101134.97
2022-08-05T05:30:30.689Z,101142.53
2022-08-05T05:33:09.436Z,101153.00
2022-08-05T05:35:46.880Z,101158.34
2022-08-05T05:38:27.001Z,101164.75
2022-08-05T05:40:57.860Z,101166.75
2022-08-05T05:43:54.613Z,101163.84
2022-08-05T05:46:17.600Z,101170.06
2022-08-05T05:48:48.028Z,101175.59
2022-08-05T05:51:20.605Z,101178.25
2022-08-05T05:53:57.671Z,101180.53
2022-08-05T05:56:32.602Z,101172.09
2022-08-05T05:59:06.658Z,101178.09
2022-08-05T06:01:37.811Z,101178.19
2022-08-05T06:04:11.930Z,101185.22
2022-08-05T06:06:42.059Z,101181.34
2022-08-05T06:09:17.540Z,101181.78
2022-08-05T06:12:01.899Z,101193.28
2022-08-05T06:14:30.905Z,101193.06
2022-08-05T06:16:58.585Z,101190.91
2022-08-05T06:19:34.038Z,101201.88
2022-08-05T06:22:03.898Z,101206.75
2022-08-05T06:24:32.023Z,101211.16
2022-08-05T06:26:59.234Z,101211.44
2022-08-05T06:29:48.993Z,101213.84
2022-08-05T06:32:26.186Z,101213.00
2022-08-05T06:34:58.606Z,101220.97
2022-08-05T06:37:55.666Z,101213.31
2022-08-05T06:40:18.071Z,101208.28
2022-08-05T06:42:52.108Z,101212.22
2022-08-05T06:45:44.466Z,101206.25
2022-08-05T06:48:36.840Z,101217.19
2022-08-05T06:50:57.893Z,101213.97
2022-08-05T06:53:28.505Z,101211.13
2022-08-05T06:56:00.756Z,101203.44
2022-08-05T06:58:35.023Z,101202.16
2022-08-05T07:01:05.753Z,101204.28
2022-08-05T07:03:33.796Z,101207.44
2022-08-05T07:06:06.010Z,101204.06
2022-08-05T07:08:47.220Z,101210.34
2022-08-05T07:11:16.211Z,101208.84
2022-08-05T07:14:02.703Z,101213.53
2022-08-05T07:18:00.458Z,101217.88
2022-08-05T07:22:29.151Z,101217.03
2022-08-05T07:25:22.432Z,101222.47
2022-08-05T07:27:56.363Z,101228.81
2022-08-05T07:30:31.944Z,101223.13
2022-08-05T07:33:01.861Z,101239.63
2022-08-05T07:36:03.567Z,101234.13
2022-08-05T07:38:33.022Z,101241.38
2022-08-05T07:41:34.981Z,101252.63
2022-08-05T07:43:56.302Z,101254.47
2022-08-05T07:46:26.202Z,101257.00
2022-08-05T07:49:03.591Z,101254.50
2022-08-05T07:51:41.157Z,101253.47
2022-08-05T07:54:23.176Z,101266.72
2022-08-05T07:57:13.546Z,101260.44
2022-08-05T07:59:42.303Z,101266.63
2022-08-05T08:02:16.704Z,101271.88
2022-08-05T08:04:47.775Z,101270.16
2022-08-05T08:07:17.929Z,101270.84
2022-08-05T08:09:46.391Z,101281.63
2022-08-05T08:12:36.931Z,101277.81
2022-08-05T08:15:04.356Z,101285.50
2022-08-05T08:17:36.342Z,101287.44
2022-08-05T08:20:22.694Z,101290.72
2022-08-05T08:22:57.001Z,101297.44
2022-08-05T08:25:27.091Z,101293.78
2022-08-05T08:28:18.678Z,101311.38
2022-08-05T08:31:02.190Z,101313.25
2022-08-05T08:33:36.083Z,101310.56
2022-08-05T08:38:56.783Z,101324.53
2022-08-05T08:41:52.579Z,101317.94
2022-08-05T08:45:24.433Z,101319.31
2022-08-05T08:47:04.202Z,101310.63
2022-08-05T08:50:06.070Z,101322.00
2022-08-05T08:52:53.275Z,101330.88
2022-08-05T08:56:01.710Z,101326.63
2022-08-05T08:58:10.207Z,101329.34
2022-08-05T09:00:41.340Z,101338.97
2022-08-05T09:03:10.471Z,101327.31
2022-08-05T09:05:38.782Z,101331.88
2022-08-05T09:08:26.513Z,101341.19
2022-08-05T09:10:54.293Z,101330.06
2022-08-05T09:13:21.654Z,101340.81
2022-08-05T09:15:54.048Z,101329.66
2022-08-05T09:18:22.363Z,101330.16
2022-08-05T09:20:51.565Z,101330.19
2022-08-05T09:23:21.650Z,101341.91
2022-08-05T09:26:00.353Z,101332.50
2022-08-05T09:28:35.062Z,101339.53
2022-08-05T09:31:23.483Z,101342.78
2022-08-05T09:33:59.069Z,101338.56
2022-08-05T09:36:56.052Z,101342.50
2022-08-05T09:39:27.703Z,101337.25
2022-08-05T09:42:20.131Z,101336.22
2022-08-05T09:44:56.756Z,101345.59
2022-08-05T09:47:34.965Z,101341.47
2022-08-05T09:50:37.361Z,101348.13
2022-08-05T09:53:09.079Z,101336.38
2022-08-05T09:55:57.052Z,101341.25
2022-08-05T09:58:29.112Z,101354.16
2022-08-05T10:01:02.196Z,101346.41
2022-08-05T10:03:58.804Z,101339.00
2022-08-05T10:06:28.231Z,101350.91
2022-08-05T10:08:56.989Z,101337.38
2022-08-05T10:11:35.005Z,101333.59
2022-08-05T10:14:32.223Z,101340.06
2022-08-05T10:17:37.220Z,101351.44
2022-08-05T10:20:04.076Z,101339.66
2022-08-05T10:22:38.106Z,101339.84
2022-08-05T10:25:10.345Z,101342.00
2022-08-05T10:28:13.290Z,101341.78
2022-08-05T10:31:20.970Z,101338.09
2022-08-05T10:33:17.668Z,101344.13
2022-08-05T10:35:50.854Z,101339.25
2022-08-05T10:38:29.359Z,101349.47
2022-08-05T10:41:23.939Z,101350.81
2022-08-05T10:43:53.972Z,101348.28
2022-08-05T10:46:23.848Z,101343.38
2022-08-05T10:49:05.045Z,101329.50
2022-08-05T10:51:59.985Z,101351.41
2022-08-05T10:55:04.703Z,101352.94
2022-08-05T10:57:34.303Z,101349.38
2022-08-05T11:00:18.241Z,101353.50
2022-08-05T11:03:25.599Z,101357.50
2022-08-05T11:06:16.054Z,101357.97
2022-08-05T11:09:16.582Z,101359.28
2022-08-05T11:11:53.552Z,101368.09
2022-08-05T11:14:56.291Z,101359.53
2022-08-05T11:18:00.451Z,101362.09
2022-08-05T11:20:39.209Z,101364.38
2022-08-05T11:24:02.644Z,101359.06
2022-08-05T11:26:28.973Z,101366.31
2022-08-05T11:29:11.532Z,101366.31
2022-08-05T11:31:58.616Z,101381.56
2022-08-05T11:34:40.184Z,101375.50
2022-08-05T11:38:29.278Z,101367.41
2022-08-05T11:41:00.806Z,101361.25
2022-08-05T11:44:01.009Z,101376.25
2022-08-05T11:46:32.484Z,101369.25
2022-08-05T11:49:01.920Z,101396.88
2022-08-05T11:51:43.579Z,101386.25
2022-08-05T11:54:14.112Z,101376.38
2022-08-05T11:56:50.490Z,101387.00
2022-08-05T11:59:21.504Z,101372.22
2022-08-05T12:01:56.485Z,101373.72
2022-08-05T12:04:24.568Z,101386.22
2022-08-05T12:06:54.791Z,101375.06
2022-08-05T12:09:52.992Z,101380.91
2022-08-05T12:12:14.249Z,101377.88
2022-08-05T12:14:43.376Z,101372.97
2022-08-05T12:18:02.985Z,101383.81
2022-08-05T12:20:17.688Z,101386.81
2022-08-05T12:22:51.810Z,101387.19
2022-08-05T12:25:19.262Z,101381.31
2022-08-05T12:27:53.636Z,101383.91
2022-08-05T12:30:22.393Z,101394.00
2022-08-05T12:33:07.516Z,101378.44
2022-08-05T12:35:46.061Z,101378.81
2022-08-05T12:38:15.361Z,101389.47
2022-08-05T12:40:44.226Z,101371.72
2022-08-05T12:43:11.671Z,101389.44
2022-08-05T12:45:55.020Z,101386.41
2022-08-05T12:48:27.307Z,101371.44
2022-08-05T12:52:10.061Z,101396.00
2022-08-05T12:54:16.933Z,101397.72
2022-08-05T12:56:54.652Z,101397.22
2022-08-05T12:59:27.534Z,101389.44
2022-08-05T13:02:12.572Z,101392.44
2022-08-05T13:04:52.423Z,101391.03
2022-08-05T13:07:57.483Z,101391.06
2022-08-05T13:10:19.683Z,101380.16
2022-08-05T13:12:57.100Z,101392.31
2022-08-05T13:15:36.059Z,101411.13
2022-08-05T13:18:09.587Z,101396.00
2022-08-05T13:20:40.412Z,101409.91
2022-08-05T13:23:08.015Z,101408.84
2022-08-05T13:25:52.057Z,101414.91
2022-08-05T13:28:22.771Z,101408.81
2022-08-05T13:30:51.163Z,101409.38
2022-08-05T13:34:24.394Z,101418.31
2022-08-05T13:36:14.489Z,101398.34
2022-08-05T13:38:43.105Z,101406.81
2022-08-05T13:41:11.686Z,101402.41
2022-08-05T13:43:44.366Z,101400.34
2022-08-05T13:46:43.670Z,101397.91
2022-08-05T13:49:12.709Z,101412.47
2022-08-05T13:51:46.362Z,101417.66
2022-08-05T13:54:20.961Z,101408.28
2022-08-05T13:56:53.460Z,101405.88
2022-08-05T13:59:23.787Z,101412.00
2022-08-05T14:01:59.603Z,101414.88
2022-08-05T14:04:49.430Z,101424.75
2022-08-05T14:07:59.476Z,101423.41
2022-08-05T14:10:19.286Z,101436.91
2022-08-05T14:12:56.047Z,101434.25
2022-08-05T14:16:05.293Z,101422.97
2022-08-05T14:18:17.298Z,101425.06
2022-08-05T14:20:54.800Z,101422.00
2022-08-05T14:23:25.253Z,101434.38
2022-08-05T14:25:58.198Z,101431.06
2022-08-05T14:28:28.694Z,101422.50
2022-08-05T14:30:57.421Z,101432.28
2022-08-05T14:33:25.902Z,101423.47
2022-08-05T14:35:54.323Z,101428.00
2022-08-05T14:38:32.505Z,101436.75
2022-08-05T14:41:06.807Z,101433.81
2022-08-05T14:44:02.319Z,101422.75
2022-08-05T14:46:29.016Z,101417.94
2022-08-05T14:49:03.655Z,101424.53
2022-08-05T14:51:42.489Z,101433.56
2022-08-05T14:54:28.386Z,101429.03
2022-08-05T14:56:58.059Z,101438.09
2022-08-05T14:59:29.349Z,101434.53
2022-08-05T15:02:14.903Z,101436.97
2022-08-05T15:04:51.783Z,101449.00
2022-08-05T15:08:05.737Z,101430.91
2022-08-05T15:10:09.603Z,101440.44
2022-08-05T15:12:59.889Z,101420.56
2022-08-05T15:15:55.187Z,101423.25
2022-08-05T15:18:13.390Z,101421.34
2022-08-05T15:20:42.529Z,101424.59
2022-08-05T15:23:11.307Z,101423.78
2022-08-05T15:25:51.060Z,101428.97
2022-08-05T15:28:19.106Z,101440.81
2022-08-05T15:30:53.003Z,101444.34
2022-08-05T15:34:04.145Z,101464.06
2022-08-05T15:36:16.830Z,101435.13
2022-08-05T15:38:46.670Z,101460.34
2022-08-05T15:41:23.306Z,101449.13
2022-08-05T15:43:54.534Z,101450.34
2022-08-05T15:46:24.004Z,101441.19
2022-08-05T15:48:58.639Z,101437.66
2022-08-05T15:52:12.907Z,101444.22
2022-08-05T15:54:17.471Z,101440.94
2022-08-05T15:56:44.837Z,101451.09
2022-08-05T15:59:21.872Z,101450.84
2022-08-05T16:01:52.662Z,101436.13
2022-08-05T16:04:25.621Z,101452.66
2022-08-05T16:06:56.696Z,101445.97
2022-08-05T16:09:25.773Z,101458.88
2022-08-05T16:11:58.727Z,101449.28
2022-08-05T16:14:26.870Z,101455.72
2022-08-05T16:16:54.717Z,101444.59
2022-08-05T16:20:02.932Z,101457.91
2022-08-05T16:22:10.475Z,101467.72
2022-08-05T16:24:41.432Z,101466.56
2022-08-05T16:27:18.399Z,101475.31
2022-08-05T16:29:50.827Z,101481.63
2022-08-05T16:32:28.406Z,101478.91
2022-08-05T16:34:57.588Z,101481.06
2022-08-05T16:38:03.148Z,101474.28
2022-08-05T16:40:26.587Z,101491.56
2022-08-05T16:42:56.809Z,101487.34
2022-08-05T16:46:04.414Z,101482.84
2022-08-05T16:48:11.437Z,101483.91
2022-08-05T16:50:53.662Z,101482.13
2022-08-05T16:53:22.473Z,101502.63
2022-08-05T16:55:59.430Z,101483.88
2022-08-05T16:58:26.803Z,101487.84
2022-08-05T17:00:54.230Z,101485.91
2022-08-05T17:03:22.320Z,101490.34
2022-08-05T17:05:53.953Z,101495.78
2022-08-05T17:08:36.348Z,101488.50
2022-08-05T17:11:12.695Z,101486.88
2022-08-05T17:13:47.088Z,101502.13
2022-08-05T17:16:33.498Z,101494.31
2022-08-05T17:19:01.774Z,101497.66
2022-08-05T17:21:35.817Z,101500.69
2022-08-05T17:24:14.378Z,101503.50
2022-08-05T17:26:54.087Z,101512.28
2022-08-05T17:29:33.441Z,101528.06
2022-08-05T17:32:11.856Z,101521.97
2022-08-05T17:34:47.782Z,101519.72
2022-08-05T17:37:41.450Z,101532.88
2022-08-05T17:40:10.280Z,101538.91
2022-08-05T17:42:41.639Z,101538.81
2022-08-05T17:45:20.826Z,101518.06
2022-08-05T17:47:54.411Z,101526.31
2022-08-05T17:50:28.715Z,101547.22
2022-08-05T17:53:01.421Z,101546.91
2022-08-05T17:55:34.559Z,101552.38
2022-08-05T17:58:12.377Z,101550.81
2022-08-05T18:00:45.050Z,101556.59
2022-08-05T18:06:06.172Z,101559.38
2022-08-05T18:08:44.764Z,101569.47
2022-08-05T18:11:23.252Z,101558.59
2022-08-05T18:13:52.669Z,101571.69
2022-08-05T18:16:20.329Z,101571.84
2022-08-05T18:18:49.812Z,101575.38
2022-08-05T18:21:20.004Z,101581.34
2022-08-05T18:23:53.449Z,101578.00
2022-08-05T18:26:27.702Z,101594.41
2022-08-05T18:28:57.528Z,101593.63
2022-08-05T18:31:25.127Z,101606.75
2022-08-05T18:33:52.836Z,101594.69
2022-08-05T18:36:27.957Z,101600.56
2022-08-05T18:38:55.978Z,101625.22
2022-08-05T18:41:58.087Z,101615.41
2022-08-05T18:44:11.331Z,101608.59
2022-08-05T18:46:41.280Z,101622.63
2022-08-05T18:49:30.370Z,101638.25
2022-08-05T18:52:16.782Z,101641.25
2022-08-05T18:54:45.993Z,101631.75
2022-08-05T18:57:15.520Z,101621.13
2022-08-05T19:00:02.180Z,101637.72
2022-08-05T19:02:30.361Z,101644.41
2022-08-05T19:05:02.499Z,101642.84
2022-08-05T19:07:50.103Z,101660.88
2022-08-05T19:10:26.652Z,101654.72
2022-08-05T19:12:58.097Z,101652.06
2022-08-05T19:15:58.714Z,101655.03
2022-08-05T19:18:20.910Z,101654.06
2022-08-05T19:20:53.910Z,101676.00
2022-08-05T19:24:04.434Z,101674.75
2022-08-05T19:26:11.248Z,101682.50
2022-08-05T19:28:43.392Z,101677.06
2022-08-05T19:31:13.410Z,101684.78
2022-08-05T19:33:48.302Z,101694.91
2022-08-05T19:36:25.941Z,101700.28
2022-08-05T19:38:55.067Z,101697.88
2022-08-05T19:42:05.463Z,101702.28
2022-08-05T19:44:16.013Z,101713.38
2022-08-05T19:46:43.666Z,101712.31
2022-08-05T19:49:16.374Z,101711.13
2022-08-05T19:52:04.733Z,101714.31
2022-08-05T19:54:32.971Z,101723.31
2022-08-05T19:57:06.644Z,101721.38
2022-08-05T19:59:56.297Z,101728.34
2022-08-05T20:02:27.011Z,101730.81
2022-08-05T20:04:58.579Z,101741.34
2022-08-05T20:07:47.341Z,101743.53
2022-08-05T20:10:22.347Z,101752.78
2022-08-05T20:12:51.986Z,101755.56
2022-08-05T20:15:23.030Z,101754.00
2022-08-05T20:18:10.689Z,101758.38
2022-08-05T20:20:56.885Z,101769.91
2022-08-05T20:23:40.738Z,101763.06
2022-08-05T20:26:17.311Z,101768.94
2022-08-05T20:28:47.951Z,101770.19
2022-08-05T20:31:16.634Z,101775.28
2022-08-05T20:33:45.024Z,101774.88
2022-08-05T20:36:14.371Z,101794.91
2022-08-05T20:38:54.338Z,101797.09
2022-08-05T20:41:43.120Z,101785.13
2022-08-05T20:44:18.744Z,101796.94
2022-08-05T20:46:57.889Z,101801.94
2022-08-05T20:49:25.892Z,101800.00
2022-08-05T20:51:54.639Z,101813.19
2022-08-05T20:54:22.874Z,101812.28
2022-08-05T20:56:52.430Z,101808.53
2022-08-05T20:59:26.844Z,101816.03
2022-08-05T21:02:07.684Z,101814.09
2022-08-05T21:04:36.782Z,101815.53
2022-08-05T21:07:05.207Z,101814.25
2022-08-05T21:09:35.492Z,101823.09
2022-08-05T21:12:09.282Z,101830.06
2022-08-05T21:14:38.731Z,101829.38
2022-08-05T21:17:06.331Z,101842.34
2022-08-05T21:19:47.006Z,101841.66
2022-08-05T21:22:23.490Z,101838.19
2022-08-05T21:24:52.601Z,101841.91
2022-08-05T21:27:25.487Z,101853.91
2022-08-05T21:29:58.734Z,101848.44
2022-08-05T21:32:29.734Z,101856.09
2022-08-05T21:35:16.829Z,101857.94
2022-08-05T21:37:52.746Z,101877.88
2022-08-05T21:40:23.200Z,101852.34
2022-08-05T21:42:52.875Z,101855.72
2022-08-05T21:45:24.633Z,101849.06
2022-08-05T21:47:55.984Z,101860.38
2022-08-05T21:50:26.427Z,101867.38
2022-08-05T21:52:59.060Z,101874.00
2022-08-05T21:56:01.278Z,101862.22
2022-08-05T21:58:20.485Z,101868.53
2022-08-05T22:00:56.293Z,101876.00
2022-08-05T22:03:49.044Z,101872.50
2022-08-05T22:06:11.201Z,101871.09
2022-08-05T22:08:42.526Z,101861.09
2022-08-05T22:11:15.480Z,101883.56
2022-08-05T22:14:05.897Z,101890.41
2022-08-05T22:16:51.682Z,101880.16
2022-08-05T22:20:02.125Z,101868.88
2022-08-05T22:25:21.373Z,101885.91
2022-08-05T22:28:08.743Z,101888.09
2022-08-05T22:30:55.345Z,101891.06
2022-08-05T22:33:55.447Z,101892.53
2022-08-05T22:36:14.638Z,101893.19
2022-08-05T22:38:48.017Z,101902.66
2022-08-05T22:41:26.326Z,101897.97
2022-08-05T22:44:06.360Z,101902.69
2022-08-05T22:46:34.253Z,101915.28
2022-08-05T22:49:12.466Z,101910.53
2022-08-05T22:52:05.659Z,101903.41
2022-08-05T22:54:36.411Z,101907.09
2022-08-05T22:57:05.013Z,101921.84
2022-08-05T22:59:45.894Z,101919.69
2022-08-05T23:02:28.823Z,101922.13
2022-08-05T23:05:01.879Z,101927.84
2022-08-05T23:07:45.513Z,101927.09
2022-08-05T23:10:20.160Z,101922.88
2022-08-05T23:12:51.629Z,101922.72
2022-08-05T23:15:27.030Z,101929.28
2022-08-05T23:18:01.818Z,101940.84
2022-08-05T23:20:31.468Z,101926.47
2022-08-05T23:23:00.302Z,101936.47
2022-08-05T23:25:51.725Z,101936.34
2022-08-05T23:28:18.503Z,101943.16
2022-08-05T23:30:53.164Z,101940.72
2022-08-05T23:33:26.322Z,101953.09
2022-08-05T23:36:10.261Z,101952.94
2022-08-05T23:38:38.236Z,101954.31
2022-08-05T23:41:05.715Z,101945.97
2022-08-05T23:43:49.722Z,101945.19
2022-08-05T23:46:22.149Z,101945.69
2022-08-05T23:49:00.015Z,101951.66
2022-08-05T23:51:56.289Z,101958.00
2022-08-05T23:54:34.167Z,101963.19
2022-08-05T23:57:05.032Z,101960.25
